sensor_id;sensor_type;location;lat;lon;timestamp;pressure;altitude;pressure_sealevel;temperature;humidity
73671;BME280;61968;48.178;11.566;2023-05-23T00:01:35;95452.13;;;18.92;37.40
73671;BME280;61968;48.178;11.566;2023-05-23T00:04:02;95456.53;;;18.83;37.24
73671;BME280;61968;48.178;11.566;2023-05-23T00:06:28;95461.63;;;18.85;37.46
73671;BME280;61968;48.178;11.566;2023-05-23T00:08:55;95451.00;;;18.55;37.90
73671;BME280;61968;48.178;11.566;2023-05-23T00:11:22;95450.56;;;18.67;37.51
73671;BME280;61968;48.178;11.566;2023-05-23T00:13:51;95457.03;;;18.66;37.39
73671;BME280;61968;48.178;11.566;2023-05-23T00:16:19;95457.22;;;18.70;37.72
73671;BME280;61968;48.178;11.566;2023-05-23T00:18:47;95456.72;;;18.68;37.46
73671;BME280;61968;48.178;11.566;2023-05-23T00:21:14;95466.41;;;18.64;37.49
73671;BME280;61968;48.178;11.566;2023-05-23T00:23:41;95471.03;;;18.58;37.61
73671;BME280;61968;48.178;11.566;2023-05-23T00:26:07;95469.38;;;18.62;37.39
73671;BME280;61968;48.178;11.566;2023-05-23T00:28:34;95468.38;;;18.58;37.21
73671;BME280;61968;48.178;11.566;2023-05-23T00:31:00;95462.31;;;18.47;37.65
73671;BME280;61968;48.178;11.566;2023-05-23T00:33:28;95459.59;;;18.52;36.96
73671;BME280;61968;48.178;11.566;2023-05-23T00:35:57;95466.31;;;18.50;37.27
73671;BME280;61968;48.178;11.566;2023-05-23T00:38:23;95469.00;;;18.50;37.43
73671;BME280;61968;48.178;11.566;2023-05-23T00:40:51;95463.22;;;18.43;37.54
73671;BME280;61968;48.178;11.566;2023-05-23T00:43:17;95456.53;;;18.40;37.50
73671;BME280;61968;48.178;11.566;2023-05-23T00:45:45;95464.22;;;18.47;37.23
73671;BME280;61968;48.178;11.566;2023-05-23T00:48:12;95459.59;;;18.52;37.09
73671;BME280;61968;48.178;11.566;2023-05-23T00:50:41;95463.47;;;18.41;37.43
73671;BME280;61968;48.178;11.566;2023-05-23T00:53:08;95468.38;;;18.34;37.66
73671;BME280;61968;48.178;11.566;2023-05-23T00:55:35;95463.84;;;18.34;37.63
73671;BME280;61968;48.178;11.566;2023-05-23T00:58:01;95467.94;;;18.27;37.75
73671;BME280;61968;48.178;11.566;2023-05-23T01:00:28;95458.66;;;18.43;37.51
73671;BME280;61968;48.178;11.566;2023-05-23T01:02:54;95464.69;;;18.54;36.99
73671;BME280;61968;48.178;11.566;2023-05-23T01:05:21;95462.31;;;18.47;37.31
73671;BME280;61968;48.178;11.566;2023-05-23T01:07:50;95466.25;;;18.36;37.62
73671;BME280;61968;48.178;11.566;2023-05-23T01:10:20;95465.09;;;18.42;37.50
73671;BME280;61968;48.178;11.566;2023-05-23T01:12:57;95471.06;;;18.34;37.47
73671;BME280;61968;48.178;11.566;2023-05-23T01:15:32;95467.31;;;18.35;37.37
73671;BME280;61968;48.178;11.566;2023-05-23T01:18:06;95479.31;;;18.38;37.38
73671;BME280;61968;48.178;11.566;2023-05-23T01:20:37;95473.31;;;18.27;37.58
73671;BME280;61968;48.178;11.566;2023-05-23T01:23:18;95482.69;;;18.24;37.60
73671;BME280;61968;48.178;11.566;2023-05-23T01:25:59;95482.28;;;18.36;37.69
73671;BME280;61968;48.178;11.566;2023-05-23T01:28:31;95475.69;;;18.28;37.76
73671;BME280;61968;48.178;11.566;2023-05-23T01:31:01;95482.97;;;18.23;37.58
73671;BME280;61968;48.178;11.566;2023-05-23T01:33:30;95484.09;;;18.17;37.79
73671;BME280;61968;48.178;11.566;2023-05-23T01:36:00;95481.81;;;18.29;37.65
73671;BME280;61968;48.178;11.566;2023-05-23T01:38:27;95473.53;;;18.30;37.67
73671;BME280;61968;48.178;11.566;2023-05-23T01:40:54;95476.41;;;18.34;37.59
73671;BME280;61968;48.178;11.566;2023-05-23T01:43:21;95481.25;;;18.32;37.41
73671;BME280;61968;48.178;11.566;2023-05-23T01:45:50;95481.72;;;18.15;37.78
73671;BME280;61968;48.178;11.566;2023-05-23T01:48:17;95483.72;;;18.28;37.28
73671;BME280;61968;48.178;11.566;2023-05-23T01:50:44;95490.72;;;18.24;37.85
73671;BME280;61968;48.178;11.566;2023-05-23T01:53:12;95491.09;;;18.12;37.82
73671;BME280;61968;48.178;11.566;2023-05-23T01:55:40;95488.47;;;18.07;38.00
73671;BME280;61968;48.178;11.566;2023-05-23T01:58:07;95496.13;;;17.90;38.49
73671;BME280;61968;48.178;11.566;2023-05-23T02:00:34;95497.75;;;17.57;38.83
73671;BME280;61968;48.178;11.566;2023-05-23T02:03:02;95501.13;;;17.73;38.74
73671;BME280;61968;48.178;11.566;2023-05-23T02:05:28;95498.72;;;17.71;38.76
73671;BME280;61968;48.178;11.566;2023-05-23T02:07:55;95497.69;;;17.67;38.81
73671;BME280;61968;48.178;11.566;2023-05-23T02:10:22;95503.25;;;17.71;38.99
73671;BME280;61968;48.178;11.566;2023-05-23T02:12:48;95503.09;;;17.57;39.17
73671;BME280;61968;48.178;11.566;2023-05-23T02:15:15;95493.84;;;17.49;39.27
73671;BME280;61968;48.178;11.566;2023-05-23T02:17:42;95505.72;;;17.67;38.98
73671;BME280;61968;48.178;11.566;2023-05-23T02:20:10;95509.19;;;17.67;38.92
73671;BME280;61968;48.178;11.566;2023-05-23T02:22:37;95501.84;;;17.49;39.41
73671;BME280;61968;48.178;11.566;2023-05-23T02:25:05;95503.66;;;17.54;39.35
73671;BME280;61968;48.178;11.566;2023-05-23T02:27:31;95501.38;;;17.71;38.89
73671;BME280;61968;48.178;11.566;2023-05-23T02:29:58;95502.13;;;17.77;38.78
73671;BME280;61968;48.178;11.566;2023-05-23T02:32:24;95499.16;;;17.54;39.23
73671;BME280;61968;48.178;11.566;2023-05-23T02:34:51;95506.25;;;17.69;39.19
73671;BME280;61968;48.178;11.566;2023-05-23T02:37:19;95503.25;;;17.71;39.22
73671;BME280;61968;48.178;11.566;2023-05-23T02:39:45;95513.63;;;17.77;39.11
73671;BME280;61968;48.178;11.566;2023-05-23T02:42:12;95501.13;;;17.73;38.97
73671;BME280;61968;48.178;11.566;2023-05-23T02:44:38;95505.94;;;17.71;39.36
73671;BME280;61968;48.178;11.566;2023-05-23T02:47:05;95510.44;;;17.41;39.96
73671;BME280;61968;48.178;11.566;2023-05-23T02:49:31;95511.44;;;17.50;39.60
73671;BME280;61968;48.178;11.566;2023-05-23T02:51:58;95508.44;;;17.57;39.85
73671;BME280;61968;48.178;11.566;2023-05-23T02:54:25;95508.78;;;17.50;39.89
73671;BME280;61968;48.178;11.566;2023-05-23T02:56:52;95506.06;;;17.55;40.00
73671;BME280;61968;48.178;11.566;2023-05-23T02:59:19;95511.97;;;17.52;39.83
73671;BME280;61968;48.178;11.566;2023-05-23T03:01:47;95509.75;;;17.64;39.38
73671;BME280;61968;48.178;11.566;2023-05-23T03:04:13;95509.41;;;17.71;39.28
73671;BME280;61968;48.178;11.566;2023-05-23T03:06:40;95518.47;;;17.75;38.98
73671;BME280;61968;48.178;11.566;2023-05-23T03:09:08;95509.13;;;17.73;39.41
73671;BME280;61968;48.178;11.566;2023-05-23T03:11:36;95514.41;;;17.78;39.51
73671;BME280;61968;48.178;11.566;2023-05-23T03:14:03;95514.00;;;17.65;39.81
73671;BME280;61968;48.178;11.566;2023-05-23T03:16:29;95519.88;;;17.67;39.68
73671;BME280;61968;48.178;11.566;2023-05-23T03:18:56;95521.00;;;17.61;39.86
73671;BME280;61968;48.178;11.566;2023-05-23T03:21:22;95518.84;;;17.63;39.83
73671;BME280;61968;48.178;11.566;2023-05-23T03:23:49;95517.00;;;17.59;39.77
73671;BME280;61968;48.178;11.566;2023-05-23T03:26:15;95515.53;;;17.72;39.47
73671;BME280;61968;48.178;11.566;2023-05-23T03:28:43;95527.75;;;17.83;39.65
73671;BME280;61968;48.178;11.566;2023-05-23T03:31:09;95526.22;;;17.77;39.73
73671;BME280;61968;48.178;11.566;2023-05-23T03:33:36;95528.97;;;17.66;39.95
73671;BME280;61968;48.178;11.566;2023-05-23T03:36:02;95530.56;;;17.67;39.81
73671;BME280;61968;48.178;11.566;2023-05-23T03:38:29;95531.66;;;17.66;39.83
73671;BME280;61968;48.178;11.566;2023-05-23T03:40:55;95527.47;;;17.55;40.09
73671;BME280;61968;48.178;11.566;2023-05-23T03:43:22;95527.56;;;17.45;39.84
73671;BME280;61968;48.178;11.566;2023-05-23T03:45:50;95520.25;;;17.51;40.27
73671;BME280;61968;48.178;11.566;2023-05-23T03:48:16;95534.75;;;17.44;40.37
73671;BME280;61968;48.178;11.566;2023-05-23T03:50:43;95536.66;;;17.39;40.19
73671;BME280;61968;48.178;11.566;2023-05-23T03:53:12;95534.81;;;17.29;40.45
73671;BME280;61968;48.178;11.566;2023-05-23T03:55:38;95534.06;;;17.23;40.87
73671;BME280;61968;48.178;11.566;2023-05-23T03:58:05;95539.13;;;17.25;40.64
73671;BME280;61968;48.178;11.566;2023-05-23T04:00:31;95531.91;;;17.26;40.68
73671;BME280;61968;48.178;11.566;2023-05-23T04:02:59;95532.44;;;17.28;40.70
73671;BME280;61968;48.178;11.566;2023-05-23T04:05:25;95530.81;;;17.32;40.82
73671;BME280;61968;48.178;11.566;2023-05-23T04:07:52;95532.75;;;17.21;41.11
73671;BME280;61968;48.178;11.566;2023-05-23T04:10:18;95532.78;;;17.16;41.06
73671;BME280;61968;48.178;11.566;2023-05-23T04:12:45;95537.34;;;17.10;41.03
73671;BME280;61968;48.178;11.566;2023-05-23T04:15:12;95538.94;;;17.11;41.15
73671;BME280;61968;48.178;11.566;2023-05-23T04:17:38;95541.88;;;17.15;40.96
73671;BME280;61968;48.178;11.566;2023-05-23T04:20:08;95542.44;;;17.12;41.34
73671;BME280;61968;48.178;11.566;2023-05-23T04:22:35;95544.34;;;17.06;41.60
73671;BME280;61968;48.178;11.566;2023-05-23T04:25:01;95553.69;;;17.09;41.43
73671;BME280;61968;48.178;11.566;2023-05-23T04:27:28;95551.28;;;17.02;41.78
73671;BME280;61968;48.178;11.566;2023-05-23T04:29:55;95558.09;;;17.23;44.26
73671;BME280;61968;48.178;11.566;2023-05-23T04:32:22;95569.38;;;17.60;41.52
73671;BME280;61968;48.178;11.566;2023-05-23T04:34:49;95561.09;;;17.61;42.96
73671;BME280;61968;48.178;11.566;2023-05-23T04:37:17;95561.25;;;17.75;42.04
73671;BME280;61968;48.178;11.566;2023-05-23T04:39:46;95558.81;;;17.79;42.43
73671;BME280;61968;48.178;11.566;2023-05-23T04:42:13;95566.22;;;17.87;41.67
73671;BME280;61968;48.178;11.566;2023-05-23T04:44:39;95566.94;;;17.98;41.45
73671;BME280;61968;48.178;11.566;2023-05-23T04:47:06;95567.69;;;18.03;41.70
73671;BME280;61968;48.178;11.566;2023-05-23T04:49:34;95565.81;;;18.04;41.71
73671;BME280;61968;48.178;11.566;2023-05-23T04:52:01;95573.81;;;18.09;41.15
73671;BME280;61968;48.178;11.566;2023-05-23T04:54:29;95578.59;;;18.12;41.03
73671;BME280;61968;48.178;11.566;2023-05-23T04:56:55;95582.06;;;18.18;40.90
73671;BME280;61968;48.178;11.566;2023-05-23T04:59:21;95574.53;;;18.20;40.31
73671;BME280;61968;48.178;11.566;2023-05-23T05:01:48;95575.09;;;18.17;41.62
73671;BME280;61968;48.178;11.566;2023-05-23T05:04:14;95576.81;;;18.31;40.39
73671;BME280;61968;48.178;11.566;2023-05-23T05:06:41;95582.84;;;18.18;41.52
73671;BME280;61968;48.178;11.566;2023-05-23T05:09:07;95577.69;;;18.27;41.15
73671;BME280;61968;48.178;11.566;2023-05-23T05:11:35;95585.84;;;18.35;41.26
73671;BME280;61968;48.178;11.566;2023-05-23T05:14:02;95586.56;;;18.46;40.71
73671;BME280;61968;48.178;11.566;2023-05-23T05:16:28;95578.50;;;18.22;41.04
73671;BME280;61968;48.178;11.566;2023-05-23T05:18:54;95582.06;;;18.18;40.48
73671;BME280;61968;48.178;11.566;2023-05-23T05:21:21;95575.16;;;18.06;40.69
73671;BME280;61968;48.178;11.566;2023-05-23T05:23:47;95577.78;;;17.82;41.41
73671;BME280;61968;48.178;11.566;2023-05-23T05:26:14;95579.16;;;17.75;41.59
73671;BME280;61968;48.178;11.566;2023-05-23T05:28:42;95575.56;;;17.55;41.70
73671;BME280;61968;48.178;11.566;2023-05-23T05:31:09;95570.00;;;17.41;42.38
73671;BME280;61968;48.178;11.566;2023-05-23T05:33:39;95568.44;;;17.35;42.41
73671;BME280;61968;48.178;11.566;2023-05-23T05:36:06;95572.50;;;17.33;42.87
73671;BME280;61968;48.178;11.566;2023-05-23T05:38:32;95573.59;;;17.27;42.82
73671;BME280;61968;48.178;11.566;2023-05-23T05:40:59;95580.00;;;17.31;42.97
73671;BME280;61968;48.178;11.566;2023-05-23T05:43:25;95583.22;;;17.28;42.88
73671;BME280;61968;48.178;11.566;2023-05-23T05:45:53;95585.13;;;17.22;42.90
73671;BME280;61968;48.178;11.566;2023-05-23T05:48:19;95588.03;;;17.20;43.03
73671;BME280;61968;48.178;11.566;2023-05-23T05:50:46;95594.63;;;16.89;43.87
73671;BME280;61968;48.178;11.566;2023-05-23T05:53:12;95590.88;;;16.90;44.08
73671;BME280;61968;48.178;11.566;2023-05-23T05:55:39;95593.44;;;17.15;43.50
73671;BME280;61968;48.178;11.566;2023-05-23T05:58:05;95592.97;;;17.03;43.85
73671;BME280;61968;48.178;11.566;2023-05-23T06:00:32;95594.03;;;17.02;43.90
73671;BME280;61968;48.178;11.566;2023-05-23T06:03:07;95599.97;;;16.89;44.14
73671;BME280;61968;48.178;11.566;2023-05-23T06:05:34;95599.56;;;16.41;45.02
73671;BME280;61968;48.178;11.566;2023-05-23T06:08:01;95596.38;;;16.28;45.46
73671;BME280;61968;48.178;11.566;2023-05-23T06:10:28;95601.13;;;16.72;44.73
73671;BME280;61968;48.178;11.566;2023-05-23T06:12:54;95602.72;;;16.63;44.76
73671;BME280;61968;48.178;11.566;2023-05-23T06:15:21;95597.75;;;16.11;45.94
73671;BME280;61968;48.178;11.566;2023-05-23T06:17:47;95594.25;;;16.30;46.04
73671;BME280;61968;48.178;11.566;2023-05-23T06:20:15;95603.78;;;16.62;45.09
73671;BME280;61968;48.178;11.566;2023-05-23T06:22:42;95603.31;;;16.35;45.88
73671;BME280;61968;48.178;11.566;2023-05-23T06:25:08;95600.31;;;16.62;45.32
73671;BME280;61968;48.178;11.566;2023-05-23T06:27:35;95601.38;;;16.76;44.82
73671;BME280;61968;48.178;11.566;2023-05-23T06:30:02;95601.53;;;16.95;44.69
73671;BME280;61968;48.178;11.566;2023-05-23T06:32:29;95605.84;;;16.86;44.68
73671;BME280;61968;48.178;11.566;2023-05-23T06:34:55;95606.06;;;16.99;44.62
73671;BME280;61968;48.178;11.566;2023-05-23T06:37:23;95603.09;;;17.06;44.34
73671;BME280;61968;48.178;11.566;2023-05-23T06:39:50;95606.91;;;16.90;44.88
73671;BME280;61968;48.178;11.566;2023-05-23T06:42:16;95609.31;;;16.96;44.54
73671;BME280;61968;48.178;11.566;2023-05-23T06:44:43;95614.34;;;17.03;44.49
73671;BME280;61968;48.178;11.566;2023-05-23T06:47:09;95619.69;;;16.98;45.00
73671;BME280;61968;48.178;11.566;2023-05-23T06:49:36;95618.44;;;16.60;46.05
73671;BME280;61968;48.178;11.566;2023-05-23T06:52:02;95621.81;;;17.01;44.91
73671;BME280;61968;48.178;11.566;2023-05-23T06:54:30;95628.16;;;17.15;44.50
73671;BME280;61968;48.178;11.566;2023-05-23T06:56:56;95625.03;;;16.98;45.04
73671;BME280;61968;48.178;11.566;2023-05-23T06:59:23;95621.81;;;17.06;44.77
73671;BME280;61968;48.178;11.566;2023-05-23T07:01:49;95622.19;;;16.74;45.62
73671;BME280;61968;48.178;11.566;2023-05-23T07:04:16;95620.31;;;16.64;46.02
73671;BME280;61968;48.178;11.566;2023-05-23T07:06:42;95615.25;;;16.73;46.11
73671;BME280;61968;48.178;11.566;2023-05-23T07:09:09;95613.50;;;17.08;45.13
73671;BME280;61968;48.178;11.566;2023-05-23T07:11:37;95612.03;;;17.36;44.92
73671;BME280;61968;48.178;11.566;2023-05-23T07:14:05;95626.00;;;17.17;44.93
73671;BME280;61968;48.178;11.566;2023-05-23T07:16:32;95625.28;;;17.02;45.70
73671;BME280;61968;48.178;11.566;2023-05-23T07:19:00;95627.31;;;17.20;45.12
73671;BME280;61968;48.178;11.566;2023-05-23T07:21:27;95632.59;;;16.75;46.01
73671;BME280;61968;48.178;11.566;2023-05-23T07:23:53;95636.38;;;16.44;46.61
73671;BME280;61968;48.178;11.566;2023-05-23T07:26:20;95632.94;;;16.18;47.32
73671;BME280;61968;48.178;11.566;2023-05-23T07:28:48;95640.69;;;16.19;47.04
73671;BME280;61968;48.178;11.566;2023-05-23T07:31:14;95641.47;;;16.30;47.45
73671;BME280;61968;48.178;11.566;2023-05-23T07:33:41;95644.34;;;16.74;46.08
73671;BME280;61968;48.178;11.566;2023-05-23T07:36:07;95642.25;;;16.41;46.28
73671;BME280;61968;48.178;11.566;2023-05-23T07:38:34;95646.25;;;16.43;46.53
73671;BME280;61968;48.178;11.566;2023-05-23T07:41:00;95634.25;;;16.36;46.94
73671;BME280;61968;48.178;11.566;2023-05-23T07:43:27;95640.63;;;16.60;46.33
73671;BME280;61968;48.178;11.566;2023-05-23T07:45:55;95634.50;;;16.54;46.64
73671;BME280;61968;48.178;11.566;2023-05-23T07:48:21;95637.66;;;16.82;46.04
73671;BME280;61968;48.178;11.566;2023-05-23T07:50:48;95634.84;;;17.13;45.43
73671;BME280;61968;48.178;11.566;2023-05-23T07:53:19;95643.19;;;16.96;45.70
73671;BME280;61968;48.178;11.566;2023-05-23T07:55:45;95644.34;;;16.80;46.09
73671;BME280;61968;48.178;11.566;2023-05-23T07:58:12;95641.34;;;16.96;45.83
73671;BME280;61968;48.178;11.566;2023-05-23T08:00:38;95641.88;;;16.93;46.07
73671;BME280;61968;48.178;11.566;2023-05-23T08:03:07;95649.59;;;17.00;45.52
73671;BME280;61968;48.178;11.566;2023-05-23T08:05:33;95645.72;;;16.46;45.92
73671;BME280;61968;48.178;11.566;2023-05-23T08:07:59;95648.63;;;16.60;46.29
73671;BME280;61968;48.178;11.566;2023-05-23T08:10:26;95649.88;;;16.98;45.54
73671;BME280;61968;48.178;11.566;2023-05-23T08:12:54;95661.44;;;16.79;45.67
73671;BME280;61968;48.178;11.566;2023-05-23T08:15:20;95653.47;;;16.32;46.59
73671;BME280;61968;48.178;11.566;2023-05-23T08:17:48;95648.09;;;16.48;46.60
73671;BME280;61968;48.178;11.566;2023-05-23T08:20:16;95654.50;;;16.42;46.72
73671;BME280;61968;48.178;11.566;2023-05-23T08:22:42;95656.66;;;16.60;45.91
73671;BME280;61968;48.178;11.566;2023-05-23T08:25:09;95652.50;;;17.09;45.17
73671;BME280;61968;48.178;11.566;2023-05-23T08:27:35;95661.06;;;17.06;44.95
73671;BME280;61968;48.178;11.566;2023-05-23T08:30:03;95657.56;;;17.05;45.34
73671;BME280;61968;48.178;11.566;2023-05-23T08:32:30;95664.09;;;16.73;45.80
73671;BME280;61968;48.178;11.566;2023-05-23T08:34:56;95662.22;;;16.79;46.02
73671;BME280;61968;48.178;11.566;2023-05-23T08:37:24;95655.25;;;16.93;45.64
73671;BME280;61968;48.178;11.566;2023-05-23T08:39:51;95666.59;;;17.19;44.87
73671;BME280;61968;48.178;11.566;2023-05-23T08:42:17;95667.06;;;17.37;44.50
73671;BME280;61968;48.178;11.566;2023-05-23T08:44:44;95669.44;;;17.49;44.24
73671;BME280;61968;48.178;11.566;2023-05-23T08:47:11;95666.69;;;16.99;44.67
73671;BME280;61968;48.178;11.566;2023-05-23T08:49:42;95667.50;;;16.99;45.12
73671;BME280;61968;48.178;11.566;2023-05-23T08:52:11;95667.06;;;17.37;44.46
73671;BME280;61968;48.178;11.566;2023-05-23T08:54:40;95674.13;;;17.12;44.36
73671;BME280;61968;48.178;11.566;2023-05-23T08:57:07;95677.59;;;17.18;44.49
73671;BME280;61968;48.178;11.566;2023-05-23T08:59:34;95672.56;;;17.01;44.80
73671;BME280;61968;48.178;11.566;2023-05-23T09:02:02;95671.97;;;17.14;44.96
73671;BME280;61968;48.178;11.566;2023-05-23T09:04:31;95676.03;;;17.07;45.15
73671;BME280;61968;48.178;11.566;2023-05-23T09:06:59;95675.91;;;17.42;43.76
73671;BME280;61968;48.178;11.566;2023-05-23T09:09:25;95679.09;;;17.39;44.28
73671;BME280;61968;48.178;11.566;2023-05-23T09:11:54;95670.78;;;17.51;44.13
73671;BME280;61968;48.178;11.566;2023-05-23T09:14:21;95676.13;;;17.51;44.28
73671;BME280;61968;48.178;11.566;2023-05-23T09:16:47;95686.75;;;17.61;44.22
73671;BME280;61968;48.178;11.566;2023-05-23T09:19:14;95687.91;;;17.45;44.20
73671;BME280;61968;48.178;11.566;2023-05-23T09:21:42;95675.28;;;17.51;44.27
73671;BME280;61968;48.178;11.566;2023-05-23T09:24:09;95683.28;;;17.56;43.96
73671;BME280;61968;48.178;11.566;2023-05-23T09:26:36;95688.56;;;17.71;43.92
73671;BME280;61968;48.178;11.566;2023-05-23T09:29:06;95675.50;;;17.64;43.89
73671;BME280;61968;48.178;11.566;2023-05-23T09:31:32;95679.88;;;17.40;44.15
73671;BME280;61968;48.178;11.566;2023-05-23T09:33:59;95690.06;;;17.43;44.36
73671;BME280;61968;48.178;11.566;2023-05-23T09:36:27;95691.66;;;17.44;44.13
73671;BME280;61968;48.178;11.566;2023-05-23T09:38:54;95691.66;;;17.44;43.73
73671;BME280;61968;48.178;11.566;2023-05-23T09:41:21;95687.78;;;17.65;43.45
73671;BME280;61968;48.178;11.566;2023-05-23T09:43:49;95687.13;;;17.34;43.66
73671;BME280;61968;48.178;11.566;2023-05-23T09:46:18;95686.84;;;17.46;43.49
73671;BME280;61968;48.178;11.566;2023-05-23T09:48:45;95689.31;;;17.17;44.00
73671;BME280;61968;48.178;11.566;2023-05-23T09:51:12;95687.44;;;17.28;43.77
73671;BME280;61968;48.178;11.566;2023-05-23T09:53:39;95701.09;;;17.16;44.30
73671;BME280;61968;48.178;11.566;2023-05-23T09:56:06;95692.34;;;17.00;44.84
73671;BME280;61968;48.178;11.566;2023-05-23T09:58:37;95685.97;;;16.91;45.24
73671;BME280;61968;48.178;11.566;2023-05-23T10:01:06;95691.19;;;17.21;44.48
73671;BME280;61968;48.178;11.566;2023-05-23T10:03:41;95689.00;;;17.34;44.38
73671;BME280;61968;48.178;11.566;2023-05-23T10:06:16;95690.22;;;17.57;43.86
73671;BME280;61968;48.178;11.566;2023-05-23T10:08:45;95689.88;;;17.74;43.51
73671;BME280;61968;48.178;11.566;2023-05-23T10:14:15;95691.06;;;17.57;44.19
73671;BME280;61968;48.178;11.566;2023-05-23T10:16:48;95686.00;;;17.51;44.39
73671;BME280;61968;48.178;11.566;2023-05-23T10:19:23;95687.84;;;17.55;44.33
73671;BME280;61968;48.178;11.566;2023-05-23T10:21:55;95686.97;;;17.70;44.01
73671;BME280;61968;48.178;11.566;2023-05-23T10:24:24;95684.78;;;17.77;43.88
73671;BME280;61968;48.178;11.566;2023-05-23T10:26:51;95679.16;;;17.79;43.29
73671;BME280;61968;48.178;11.566;2023-05-23T10:29:18;95680.03;;;17.69;43.56
73671;BME280;61968;48.178;11.566;2023-05-23T10:31:45;95672.41;;;17.86;43.29
73671;BME280;61968;48.178;11.566;2023-05-23T10:34:22;95671.69;;;17.76;43.47
73671;BME280;61968;48.178;11.566;2023-05-23T10:36:56;95676.69;;;17.38;43.90
73671;BME280;61968;48.178;11.566;2023-05-23T10:39:39;95675.16;;;17.16;44.19
73671;BME280;61968;48.178;11.566;2023-05-23T10:42:12;95676.50;;;17.14;44.14
73671;BME280;61968;48.178;11.566;2023-05-23T10:44:41;95680.25;;;17.18;44.41
73671;BME280;61968;48.178;11.566;2023-05-23T10:47:07;95669.28;;;17.14;44.35
73671;BME280;61968;48.178;11.566;2023-05-23T10:49:39;95667.88;;;17.42;43.19
73671;BME280;61968;48.178;11.566;2023-05-23T10:52:07;95666.00;;;17.38;43.39
73671;BME280;61968;48.178;11.566;2023-05-23T10:54:35;95659.25;;;17.51;43.36
73671;BME280;61968;48.178;11.566;2023-05-23T10:57:02;95659.09;;;17.81;41.91
73671;BME280;61968;48.178;11.566;2023-05-23T10:59:29;95663.81;;;17.95;41.32
73671;BME280;61968;48.178;11.566;2023-05-23T11:01:55;95665.25;;;17.77;40.55
73671;BME280;61968;48.178;11.566;2023-05-23T11:04:26;95652.63;;;17.87;40.67
73671;BME280;61968;48.178;11.566;2023-05-23T11:06:55;95664.44;;;18.21;39.82
73671;BME280;61968;48.178;11.566;2023-05-23T11:09:22;95662.16;;;17.99;39.38
73671;BME280;61968;48.178;11.566;2023-05-23T11:11:53;95669.25;;;18.19;39.57
73671;BME280;61968;48.178;11.566;2023-05-23T11:14:30;95662.69;;;18.35;39.26
73671;BME280;61968;48.178;11.566;2023-05-23T11:16:58;95661.56;;;18.41;39.10
73671;BME280;61968;48.178;11.566;2023-05-23T11:19:26;95648.13;;;18.46;39.04
73671;BME280;61968;48.178;11.566;2023-05-23T11:21:56;95645.41;;;18.51;38.75
73671;BME280;61968;48.178;11.566;2023-05-23T11:24:47;95648.13;;;18.46;38.91
73671;BME280;61968;48.178;11.566;2023-05-23T11:27:14;95644.19;;;18.39;38.85
73671;BME280;61968;48.178;11.566;2023-05-23T11:29:41;95645.50;;;18.41;38.91
73671;BME280;61968;48.178;11.566;2023-05-23T11:32:11;95635.16;;;18.58;38.54
73671;BME280;61968;48.178;11.566;2023-05-23T11:34:38;95648.50;;;18.64;38.54
73671;BME280;61968;48.178;11.566;2023-05-23T11:37:07;95645.91;;;18.83;38.74
73671;BME280;61968;48.178;11.566;2023-05-23T11:39:36;95638.94;;;18.57;38.99
73671;BME280;61968;48.178;11.566;2023-05-23T11:42:03;95643.91;;;18.40;39.71
73671;BME280;61968;48.178;11.566;2023-05-23T11:44:29;95641.56;;;18.87;38.81
73671;BME280;61968;48.178;11.566;2023-05-23T11:47:00;95635.19;;;18.53;40.18
73671;BME280;61968;48.178;11.566;2023-05-23T11:49:27;95642.41;;;18.87;39.43
73671;BME280;61968;48.178;11.566;2023-05-23T11:51:54;95634.66;;;19.04;39.33
73671;BME280;61968;48.178;11.566;2023-05-23T11:54:23;95632.22;;;19.51;38.99
73671;BME280;61968;48.178;11.566;2023-05-23T11:56:50;95626.47;;;19.77;38.59
73671;BME280;61968;48.178;11.566;2023-05-23T11:59:16;95623.94;;;19.85;37.75
73671;BME280;61968;48.178;11.566;2023-05-23T12:01:43;95641.50;;;19.59;38.72
73671;BME280;61968;48.178;11.566;2023-05-23T12:04:10;95627.72;;;19.65;38.11
73671;BME280;61968;48.178;11.566;2023-05-23T12:06:38;95626.63;;;19.85;38.64
73671;BME280;61968;48.178;11.566;2023-05-23T12:09:05;95630.63;;;20.02;38.96
73671;BME280;61968;48.178;11.566;2023-05-23T12:11:33;95639.16;;;19.71;36.83
73671;BME280;61968;48.178;11.566;2023-05-23T12:14:00;95627.69;;;19.46;38.08
73671;BME280;61968;48.178;11.566;2023-05-23T12:16:30;95638.38;;;19.52;36.60
73671;BME280;61968;48.178;11.566;2023-05-23T12:18:57;95628.22;;;19.67;36.55
73671;BME280;61968;48.178;11.566;2023-05-23T12:21:25;95619.41;;;20.00;37.18
73671;BME280;61968;48.178;11.566;2023-05-23T12:23:52;95629.81;;;19.49;37.54
73671;BME280;61968;48.178;11.566;2023-05-23T12:26:18;95636.91;;;19.59;38.05
73671;BME280;61968;48.178;11.566;2023-05-23T12:28:47;95642.88;;;19.75;38.69
73671;BME280;61968;48.178;11.566;2023-05-23T12:31:16;95644.63;;;19.66;40.38
73671;BME280;61968;48.178;11.566;2023-05-23T12:33:44;95638.22;;;20.00;37.93
73671;BME280;61968;48.178;11.566;2023-05-23T12:36:12;95648.41;;;19.98;39.11
73671;BME280;61968;48.178;11.566;2023-05-23T12:38:39;95648.22;;;19.56;39.48
73671;BME280;61968;48.178;11.566;2023-05-23T12:41:10;95647.94;;;19.58;37.35
73671;BME280;61968;48.178;11.566;2023-05-23T12:43:38;95639.25;;;19.85;38.52
73671;BME280;61968;48.178;11.566;2023-05-23T12:46:06;95634.72;;;20.18;38.28
73671;BME280;61968;48.178;11.566;2023-05-23T12:48:33;95633.03;;;20.22;36.95
73671;BME280;61968;48.178;11.566;2023-05-23T12:50:59;95632.28;;;20.35;35.63
73671;BME280;61968;48.178;11.566;2023-05-23T12:53:28;95641.06;;;20.55;36.67
73671;BME280;61968;48.178;11.566;2023-05-23T12:55:55;95645.75;;;19.98;37.15